Time;durP1;ratioP1;P1;durP2;ratioP2;P2;SDS_P1;SDS_P2;PMS_P1;PMS_P2;Temp;Humidity;BMP_temperature;BMP_pressure;BME280_temperature;BME280_humidity;BME280_pressure;Samples;Min_cycle;Max_cycle;Signal;HPM_P1;HPM_P2
2022/07/31 00:00:08;;;;;;;31.07;27.97;;;15.90;99.90;;;;;;5009821;28;20223;-51
2022/07/31 00:02:34;;;;;;;29.60;26.90;;;15.90;99.90;;;;;;5029075;28;20410;-49
2022/07/31 00:05:00;;;;;;;28.40;25.70;;;15.90;99.90;;;;;;5023079;28;20435;-50
2022/07/31 00:07:26;;;;;;;29.20;26.80;;;16.00;99.90;;;;;;5018590;28;20873;-55
2022/07/31 00:09:51;;;;;;;29.30;26.60;;;16.10;99.90;;;;;;5004884;28;20222;-52
2022/07/31 00:12:17;;;;;;;28.10;25.70;;;16.00;99.90;;;;;;5027728;28;20179;-51
2022/07/31 00:14:42;;;;;;;28.00;25.40;;;15.90;99.90;;;;;;5024510;28;20197;-50
2022/07/31 00:17:08;;;;;;;29.07;26.47;;;15.90;99.90;;;;;;5019605;28;20193;-49
2022/07/31 00:19:33;;;;;;;27.53;25.13;;;15.90;99.90;;;;;;5024085;28;20275;-54
2022/07/31 00:21:59;;;;;;;28.40;25.80;;;15.90;99.90;;;;;;5013934;28;20195;-53
2022/07/31 00:24:25;;;;;;;28.03;25.63;;;15.90;99.90;;;;;;5018862;28;20191;-51
2022/07/31 00:26:51;;;;;;;28.23;25.80;;;15.80;99.90;;;;;;5011531;28;20180;-53
2022/07/31 00:29:17;;;;;;;29.53;26.93;;;15.80;99.90;;;;;;5024795;28;20958;-50
2022/07/31 00:31:43;;;;;;;30.50;27.70;;;15.70;99.90;;;;;;5023111;28;20462;-51
2022/07/31 00:34:08;;;;;;;31.30;28.50;;;15.70;99.90;;;;;;5025630;28;20207;-52
2022/07/31 00:36:34;;;;;;;32.97;30.07;;;15.70;99.90;;;;;;5020198;28;20233;-51
2022/07/31 00:39:00;;;;;;;31.30;28.43;;;15.70;99.90;;;;;;5026695;28;20183;-51
2022/07/31 00:41:39;;;;;;;33.07;29.57;;;15.60;99.90;;;;;;5015444;28;20287;-52
2022/07/31 00:44:05;;;;;;;33.30;30.20;;;15.50;99.90;;;;;;5018756;28;20298;-49
2022/07/31 00:46:31;;;;;;;35.20;31.90;;;15.50;99.90;;;;;;5023651;28;20861;-49
2022/07/31 00:48:56;;;;;;;34.90;31.73;;;15.50;99.90;;;;;;5023510;28;20183;-49
2022/07/31 00:51:22;;;;;;;34.33;31.17;;;15.40;99.90;;;;;;5015614;28;20206;-55
2022/07/31 00:53:47;;;;;;;35.03;31.63;;;15.40;99.90;;;;;;5015893;28;20257;-52
2022/07/31 00:56:13;;;;;;;34.30;31.20;;;15.40;99.90;;;;;;5015209;28;20184;-52
2022/07/31 00:58:39;;;;;;;34.20;31.07;;;15.40;99.90;;;;;;5013782;28;20195;-53
2022/07/31 01:01:04;;;;;;;32.47;29.37;;;15.40;99.90;;;;;;5017802;28;20254;-53
2022/07/31 01:03:30;;;;;;;30.83;28.20;;;15.30;99.90;;;;;;5017704;28;20618;-52
2022/07/31 01:05:56;;;;;;;32.40;29.40;;;15.30;99.90;;;;;;5017845;28;20560;-49
2022/07/31 01:08:21;;;;;;;33.17;30.17;;;15.30;99.90;;;;;;5031563;28;20193;-51
2022/07/31 01:10:57;;;;;;;30.03;27.33;;;15.30;99.90;;;;;;5019412;28;20300;-51
2022/07/31 01:13:42;;;;;;;31.37;28.47;;;15.30;99.90;;;;;;5014296;28;20650;-50
2022/07/31 01:16:10;;;;;;;31.00;28.00;;;15.30;99.90;;;;;;5021604;28;21074;-52
2022/07/31 01:18:37;;;;;;;33.40;30.33;;;15.20;99.90;;;;;;5022877;28;20423;-51
2022/07/31 01:21:06;;;;;;;31.47;28.57;;;15.20;99.90;;;;;;5035295;28;20955;-53
2022/07/31 01:23:48;;;;;;;31.63;28.50;;;15.20;99.90;;;;;;5023698;28;20434;-52
2022/07/31 01:26:34;;;;;;;33.63;30.50;;;15.20;99.90;;;;;;5008349;28;20442;-51
2022/07/31 01:29:06;;;;;;;31.07;28.27;;;15.10;99.90;;;;;;5018243;28;20437;-52
2022/07/31 01:31:42;;;;;;;32.20;29.20;;;15.10;99.90;;;;;;5027492;28;20952;-52
2022/07/31 01:34:18;;;;;;;33.77;30.60;;;15.10;99.90;;;;;;5016215;28;20772;-51
2022/07/31 01:36:51;;;;;;;33.10;30.10;;;15.00;99.90;;;;;;5015528;28;20433;-50
2022/07/31 01:39:17;;;;;;;31.60;28.73;;;15.00;99.90;;;;;;5012807;28;20491;-50
2022/07/31 01:41:46;;;;;;;33.13;30.20;;;15.00;99.90;;;;;;5026543;28;20457;-49
2022/07/31 01:44:14;;;;;;;31.40;28.50;;;14.90;99.90;;;;;;5019225;28;20434;-49
2022/07/31 01:46:42;;;;;;;33.07;30.00;;;14.90;99.90;;;;;;5026582;28;20461;-52
2022/07/31 01:49:09;;;;;;;30.23;27.63;;;14.90;99.90;;;;;;5027773;28;20433;-49
2022/07/31 01:51:37;;;;;;;30.43;27.83;;;14.90;99.90;;;;;;5017143;28;20521;-51
2022/07/31 01:54:04;;;;;;;31.03;28.10;;;14.80;99.90;;;;;;5011602;28;20789;-52
2022/07/31 01:56:31;;;;;;;32.13;28.83;;;14.90;99.90;;;;;;5004296;28;20442;-54
2022/07/31 01:58:59;;;;;;;31.83;28.73;;;14.90;99.90;;;;;;5011300;28;20506;-54
2022/07/31 02:01:26;;;;;;;35.43;32.00;;;14.80;99.90;;;;;;5000821;28;20478;-53
2022/07/31 02:04:06;;;;;;;34.03;30.87;;;14.70;99.90;;;;;;5014646;28;21077;-52
2022/07/31 02:06:34;;;;;;;33.23;29.97;;;14.70;99.90;;;;;;5022965;28;20515;-51
2022/07/31 02:09:01;;;;;;;34.27;31.17;;;14.70;99.90;;;;;;5012697;28;20437;-52
2022/07/31 02:11:26;;;;;;;35.17;31.93;;;14.80;99.90;;;;;;5009792;28;20496;-53
2022/07/31 02:13:53;;;;;;;34.83;31.73;;;14.80;99.90;;;;;;5014359;28;20814;-50
2022/07/31 02:16:19;;;;;;;33.10;30.00;;;14.80;99.90;;;;;;5008540;28;20180;-50
2022/07/31 02:18:48;;;;;;;34.13;30.73;;;14.80;99.90;;;;;;5019305;28;20425;-51
2022/07/31 02:21:14;;;;;;;33.57;30.47;;;14.70;99.90;;;;;;5023854;28;20442;-50
2022/07/31 02:23:40;;;;;;;33.97;30.77;;;14.70;99.90;;;;;;5012538;28;20435;-51
2022/07/31 02:26:06;;;;;;;34.87;31.67;;;14.70;99.90;;;;;;5014027;28;20450;-48
2022/07/31 02:28:33;;;;;;;34.10;30.70;;;14.60;99.90;;;;;;5018893;28;20222;-52
2022/07/31 02:31:00;;;;;;;34.70;31.50;;;14.60;99.90;;;;;;5027726;28;20502;-51
2022/07/31 02:33:26;;;;;;;32.77;29.67;;;14.60;99.90;;;;;;5015335;28;20434;-53
2022/07/31 02:35:55;;;;;;;33.77;30.67;;;14.60;99.90;;;;;;5023376;28;20443;-55
2022/07/31 02:38:25;;;;;;;33.07;29.97;;;14.60;99.90;;;;;;5018228;28;21153;-50
2022/07/31 02:40:53;;;;;;;29.57;26.87;;;14.60;99.90;;;;;;5030490;28;20509;-54
2022/07/31 02:43:20;;;;;;;31.93;29.03;;;14.50;99.90;;;;;;5020016;28;20426;-52
2022/07/31 02:45:46;;;;;;;34.50;31.30;;;14.50;99.90;;;;;;5016033;28;20451;-52
2022/07/31 02:48:12;;;;;;;33.50;30.60;;;14.50;99.90;;;;;;5012265;28;20434;-50
2022/07/31 02:50:38;;;;;;;31.13;28.23;;;14.50;99.90;;;;;;5012947;28;21085;-52
2022/07/31 02:53:04;;;;;;;33.47;30.37;;;14.50;99.90;;;;;;5011615;28;20195;-51
2022/07/31 02:55:30;;;;;;;34.33;31.13;;;14.40;99.90;;;;;;5012820;28;20500;-54
2022/07/31 02:57:56;;;;;;;33.43;30.50;;;14.50;99.90;;;;;;5019818;28;20433;-52
2022/07/31 03:00:22;;;;;;;33.27;30.27;;;14.40;99.90;;;;;;5022098;28;20477;-50
2022/07/31 03:02:52;;;;;;;31.50;28.50;;;14.40;99.90;;;;;;5023381;28;20180;-51
2022/07/31 03:05:18;;;;;;;34.07;30.87;;;14.30;99.90;;;;;;5017235;28;20960;-53
2022/07/31 03:07:44;;;;;;;34.10;30.80;;;14.30;99.90;;;;;;5013623;28;20561;-55
2022/07/31 03:10:10;;;;;;;31.73;28.83;;;14.30;99.90;;;;;;5021356;28;20496;-54
2022/07/31 03:12:43;;;;;;;35.10;31.83;;;14.30;99.90;;;;;;5018234;28;20282;-52
2022/07/31 03:15:12;;;;;;;31.93;29.07;;;14.20;99.90;;;;;;5018576;28;20426;-55
2022/07/31 03:17:39;;;;;;;33.83;30.73;;;14.20;99.90;;;;;;5022326;28;20437;-54
2022/07/31 03:20:07;;;;;;;33.07;30.03;;;14.20;99.90;;;;;;5019313;28;20442;-51
2022/07/31 03:22:33;;;;;;;32.70;29.70;;;14.20;99.90;;;;;;5009896;28;20608;-51
2022/07/31 03:25:00;;;;;;;33.60;30.20;;;14.20;99.90;;;;;;5017625;28;20438;-54
2022/07/31 03:27:26;;;;;;;29.97;27.27;;;14.20;99.90;;;;;;5024398;28;20441;-55
2022/07/31 03:29:53;;;;;;;33.13;30.00;;;14.20;99.90;;;;;;5010045;28;20416;-54
2022/07/31 03:32:19;;;;;;;32.27;29.20;;;14.10;99.90;;;;;;5012284;28;20442;-53
2022/07/31 03:34:45;;;;;;;32.10;29.10;;;14.10;99.90;;;;;;5009098;28;20430;-53
2022/07/31 03:37:11;;;;;;;32.20;29.30;;;14.10;99.90;;;;;;5012718;28;20443;-49
2022/07/31 03:39:36;;;;;;;32.83;29.73;;;14.10;99.90;;;;;;5009142;28;20453;-51
2022/07/31 03:42:02;;;;;;;31.87;28.87;;;14.20;99.90;;;;;;5015757;28;20218;-52
2022/07/31 03:44:30;;;;;;;31.73;28.67;;;14.20;99.90;;;;;;5022550;28;20184;-52
2022/07/31 03:46:55;;;;;;;33.97;30.90;;;14.10;99.90;;;;;;5021201;28;20439;-51
2022/07/31 03:49:22;;;;;;;33.23;30.00;;;14.10;99.90;;;;;;5013485;28;21187;-51
2022/07/31 03:51:48;;;;;;;35.60;32.20;;;14.00;99.90;;;;;;5008795;28;20326;-55
2022/07/31 03:54:13;;;;;;;35.77;32.37;;;13.90;99.90;;;;;;5024962;28;20526;-55
2022/07/31 03:56:42;;;;;;;34.57;31.27;;;13.90;99.90;;;;;;5011683;28;20609;-53
2022/07/31 03:59:08;;;;;;;34.70;31.30;;;13.90;99.90;;;;;;5014893;28;20257;-50
2022/07/31 04:01:34;;;;;;;32.40;29.40;;;14.00;99.90;;;;;;5009941;28;20441;-51
2022/07/31 04:03:59;;;;;;;33.30;30.00;;;14.00;99.90;;;;;;5016019;28;20912;-56
2022/07/31 04:06:25;;;;;;;33.03;29.93;;;14.00;99.90;;;;;;5010621;28;20492;-51
2022/07/31 04:08:51;;;;;;;33.70;30.43;;;14.00;99.90;;;;;;5024913;28;20194;-54
2022/07/31 04:11:16;;;;;;;33.40;30.17;;;14.00;99.90;;;;;;5013728;28;20349;-55
2022/07/31 04:13:42;;;;;;;32.73;29.77;;;14.00;99.90;;;;;;5021505;28;20183;-55
2022/07/31 04:16:08;;;;;;;31.67;28.70;;;14.00;99.90;;;;;;5020616;28;20228;-52
2022/07/31 04:18:33;;;;;;;34.50;31.10;;;14.00;99.90;;;;;;5021548;28;20190;-51
2022/07/31 04:20:59;;;;;;;33.40;30.30;;;14.00;99.90;;;;;;5008401;28;20194;-52
2022/07/31 04:23:25;;;;;;;32.90;29.80;;;14.00;99.90;;;;;;5019760;28;20187;-54
2022/07/31 04:25:51;;;;;;;33.70;30.50;;;14.10;99.90;;;;;;5004945;28;20218;-54
2022/07/31 04:28:16;;;;;;;32.07;28.97;;;14.10;99.90;;;;;;5001981;28;20187;-55
2022/07/31 04:30:42;;;;;;;31.23;28.43;;;14.20;99.90;;;;;;5013255;28;20619;-52
2022/07/31 04:33:08;;;;;;;31.77;28.77;;;14.30;99.90;;;;;;5015523;28;20180;-54
2022/07/31 04:35:34;;;;;;;30.90;28.20;;;14.10;99.90;;;;;;5008649;28;20629;-55
2022/07/31 04:38:00;;;;;;;34.03;30.83;;;14.20;99.90;;;;;;5001398;28;20226;-54
2022/07/31 04:40:26;;;;;;;33.87;30.50;;;14.10;99.90;;;;;;5012360;28;20471;-53
2022/07/31 04:42:53;;;;;;;31.87;28.67;;;14.10;99.90;;;;;;5023983;28;20958;-57
2022/07/31 04:45:18;;;;;;;32.40;29.50;;;14.20;99.90;;;;;;5011837;28;20532;-53
2022/07/31 04:47:44;;;;;;;33.40;30.00;;;14.20;99.90;;;;;;5028750;28;20514;-52
2022/07/31 04:50:10;;;;;;;32.37;29.40;;;14.20;99.90;;;;;;5011566;28;20212;-57
2022/07/31 04:52:35;;;;;;;32.47;29.57;;;14.30;99.90;;;;;;5007853;28;20623;-53
2022/07/31 04:55:02;;;;;;;33.10;29.90;;;14.30;99.90;;;;;;5013955;28;20187;-56
2022/07/31 04:57:27;;;;;;;31.33;28.13;;;14.30;99.90;;;;;;5013681;28;20179;-51
2022/07/31 04:59:53;;;;;;;31.73;28.73;;;14.40;99.90;;;;;;5011740;28;20473;-54
2022/07/31 05:02:18;;;;;;;31.60;28.70;;;14.50;99.90;;;;;;5010824;28;20195;-52
2022/07/31 05:04:44;;;;;;;31.70;28.80;;;14.50;99.90;;;;;;5013954;28;20203;-50
2022/07/31 05:07:09;;;;;;;33.40;30.20;;;14.60;99.90;;;;;;5011632;28;20663;-52
2022/07/31 05:09:35;;;;;;;31.07;28.00;;;14.60;99.90;;;;;;5025180;28;20214;-52
2022/07/31 05:12:01;;;;;;;33.33;30.23;;;14.70;99.90;;;;;;5018773;28;20216;-50
2022/07/31 05:14:27;;;;;;;31.27;28.50;;;14.70;99.90;;;;;;5010730;28;20187;-49
2022/07/31 05:16:52;;;;;;;31.87;29.07;;;14.80;99.90;;;;;;5013691;28;20665;-53
2022/07/31 05:19:18;;;;;;;30.70;27.93;;;14.90;99.90;;;;;;5026648;28;20433;-50
2022/07/31 05:21:45;;;;;;;31.87;28.97;;;14.90;99.90;;;;;;5011381;28;20288;-53
2022/07/31 05:24:11;;;;;;;30.43;27.80;;;15.10;99.90;;;;;;5027836;28;20452;-52
2022/07/31 05:26:37;;;;;;;28.93;26.43;;;15.10;99.90;;;;;;5030255;28;20537;-51
2022/07/31 05:29:03;;;;;;;28.93;26.43;;;15.20;99.90;;;;;;5016064;28;20452;-53
2022/07/31 05:31:29;;;;;;;29.83;27.23;;;15.30;99.90;;;;;;5029497;28;20492;-51
2022/07/31 05:33:55;;;;;;;29.50;27.00;;;15.30;99.90;;;;;;5009287;28;20444;-50
2022/07/31 05:36:21;;;;;;;28.43;26.13;;;15.40;99.90;;;;;;5022132;28;20179;-52
2022/07/31 05:38:46;;;;;;;26.70;24.47;;;15.50;99.90;;;;;;5013886;28;20272;-51
2022/07/31 05:41:12;;;;;;;25.70;23.20;;;15.60;99.90;;;;;;5021848;28;20454;-48
2022/07/31 05:43:38;;;;;;;25.87;23.77;;;15.70;99.90;;;;;;5011446;28;20258;-50
2022/07/31 05:46:04;;;;;;;24.50;22.40;;;15.80;99.90;;;;;;5011942;28;20487;-52
2022/07/31 05:48:30;;;;;;;24.10;22.10;;;15.90;99.90;;;;;;5020771;28;20773;-52
2022/07/31 05:50:56;;;;;;;23.60;21.60;;;16.00;99.90;;;;;;5019544;28;20486;-53
2022/07/31 05:53:22;;;;;;;22.60;20.47;;;16.20;99.90;;;;;;5019686;28;20541;-52
2022/07/31 05:55:48;;;;;;;22.07;20.13;;;16.20;99.90;;;;;;5014294;28;20213;-52
2022/07/31 05:58:16;;;;;;;20.77;19.07;;;16.30;99.90;;;;;;5009541;28;20193;-54
2022/07/31 06:00:45;;;;;;;23.13;20.93;;;16.40;99.90;;;;;;5021793;28;20606;-50
2022/07/31 06:03:11;;;;;;;22.13;20.23;;;16.50;99.90;;;;;;5020573;28;20452;-53
2022/07/31 06:05:41;;;;;;;20.17;18.57;;;16.60;99.90;;;;;;5013273;28;20496;-52
2022/07/31 06:08:08;;;;;;;21.80;20.10;;;16.70;99.90;;;;;;5010104;28;20449;-52
2022/07/31 06:10:36;;;;;;;20.00;18.40;;;16.80;99.90;;;;;;5022343;28;20606;-54
2022/07/31 06:13:02;;;;;;;19.97;18.37;;;17.00;99.90;;;;;;5021308;28;20520;-55
2022/07/31 06:15:27;;;;;;;19.57;17.80;;;17.10;99.90;;;;;;5021552;28;20927;-53
2022/07/31 06:17:53;;;;;;;19.40;17.90;;;17.20;99.90;;;;;;5026598;28;20523;-55
2022/07/31 06:20:19;;;;;;;18.53;17.00;;;17.30;99.90;;;;;;5016359;28;20186;-53
2022/07/31 06:22:44;;;;;;;18.50;17.00;;;17.40;99.90;;;;;;5017678;28;20191;-54
2022/07/31 06:25:10;;;;;;;15.77;14.50;;;17.60;99.90;;;;;;5019068;28;20201;-56
2022/07/31 06:27:36;;;;;;;16.13;14.80;;;17.70;99.90;;;;;;5022354;28;20190;-57
2022/07/31 06:30:05;;;;;;;16.73;15.00;;;17.80;99.90;;;;;;5011438;28;20473;-54
2022/07/31 06:32:35;;;;;;;15.40;14.20;;;18.00;99.90;;;;;;5014888;28;20983;-58
2022/07/31 06:35:01;;;;;;;15.03;13.80;;;18.10;99.90;;;;;;5022541;28;20444;-57
2022/07/31 06:37:27;;;;;;;14.80;13.60;;;18.30;99.90;;;;;;5025238;28;20430;-58
2022/07/31 06:39:53;;;;;;;14.47;13.23;;;18.50;99.90;;;;;;5023489;28;20943;-57
2022/07/31 06:42:19;;;;;;;12.37;11.47;;;18.60;99.90;;;;;;5025521;28;20199;-57
2022/07/31 06:44:45;;;;;;;10.87;9.97;;;18.90;99.90;;;;;;5018157;28;20642;-57
2022/07/31 06:47:11;;;;;;;11.13;10.10;;;19.10;99.90;;;;;;5020759;28;20437;-54
2022/07/31 06:49:36;;;;;;;10.03;9.23;;;19.30;99.90;;;;;;5009198;28;20245;-58
2022/07/31 06:52:02;;;;;;;9.83;9.13;;;19.40;99.90;;;;;;5004231;28;20246;-57
2022/07/31 06:54:28;;;;;;;10.53;9.73;;;19.60;99.90;;;;;;5007238;28;20183;-55
2022/07/31 06:56:53;;;;;;;11.43;9.80;;;19.80;99.90;;;;;;5025235;28;20232;-58
2022/07/31 06:59:19;;;;;;;10.93;10.07;;;20.00;99.90;;;;;;5012877;28;20223;-57
2022/07/31 07:01:44;;;;;;;10.13;9.30;;;20.10;99.90;;;;;;5023872;28;20201;-51
2022/07/31 07:04:10;;;;;;;10.40;9.63;;;20.20;99.90;;;;;;5016000;28;20190;-51
2022/07/31 07:06:35;;;;;;;10.93;10.07;;;20.20;99.90;;;;;;5015649;28;20188;-52
2022/07/31 07:09:01;;;;;;;10.13;9.43;;;20.40;99.90;;;;;;5022734;28;20214;-54
2022/07/31 07:11:26;;;;;;;9.97;9.07;;;20.40;99.90;;;;;;5011666;28;20203;-52
2022/07/31 07:13:52;;;;;;;9.70;8.97;;;20.60;99.90;;;;;;5021045;28;20183;-56
2022/07/31 07:16:18;;;;;;;9.57;8.87;;;20.70;99.90;;;;;;5021146;28;20190;-56
2022/07/31 07:18:43;;;;;;;10.17;9.40;;;20.90;99.90;;;;;;5022784;28;20266;-52
2022/07/31 07:21:10;;;;;;;11.20;10.07;;;21.00;99.90;;;;;;5009766;28;20185;-53
2022/07/31 07:23:35;;;;;;;9.87;9.17;;;21.10;99.90;;;;;;5015178;28;20192;-55
2022/07/31 07:26:01;;;;;;;10.30;9.60;;;21.20;99.90;;;;;;5020773;28;20437;-54
2022/07/31 07:28:26;;;;;;;10.40;9.70;;;21.40;99.90;;;;;;5021272;28;20192;-53
2022/07/31 07:30:52;;;;;;;11.40;10.47;;;21.60;99.90;;;;;;5020237;28;20223;-52
2022/07/31 07:33:17;;;;;;;10.40;9.60;;;21.70;99.90;;;;;;4994565;28;20230;-56
2022/07/31 07:35:43;;;;;;;10.07;9.47;;;21.80;99.90;;;;;;5007269;28;20177;-53
2022/07/31 07:38:08;;;;;;;9.40;8.80;;;22.00;99.90;;;;;;5010940;28;20262;-53
2022/07/31 07:40:34;;;;;;;9.90;9.20;;;22.20;99.90;;;;;;5008692;28;20239;-56
2022/07/31 07:43:00;;;;;;;9.63;8.93;;;22.30;99.90;;;;;;5015323;28;20278;-58
2022/07/31 07:45:25;;;;;;;9.30;8.70;;;22.40;99.90;;;;;;5019452;28;20263;-53
2022/07/31 07:47:51;;;;;;;10.00;9.30;;;22.50;99.90;;;;;;5013166;28;20226;-54
2022/07/31 07:50:16;;;;;;;10.57;9.87;;;22.60;99.90;;;;;;5011450;28;20630;-51
2022/07/31 07:52:43;;;;;;;10.50;9.80;;;22.70;99.90;;;;;;5000623;28;20189;-53
2022/07/31 07:55:11;;;;;;;9.40;8.60;;;22.70;99.90;;;;;;5015140;28;20213;-52
2022/07/31 07:57:37;;;;;;;10.20;9.50;;;22.90;99.90;;;;;;5010310;28;20449;-54
2022/07/31 08:00:06;;;;;;;10.40;9.70;;;22.90;99.90;;;;;;5005610;28;20481;-52
2022/07/31 08:02:32;;;;;;;10.03;9.43;;;22.90;99.90;;;;;;5006676;28;20466;-55
2022/07/31 08:04:58;;;;;;;9.70;9.00;;;23.00;99.90;;;;;;5001289;28;20472;-53
2022/07/31 08:07:32;;;;;;;10.60;9.90;;;23.10;99.90;;;;;;5001420;28;20446;-52
2022/07/31 08:09:58;;;;;;;10.60;9.90;;;23.20;99.90;;;;;;5012780;28;20436;-50
2022/07/31 08:12:25;;;;;;;10.70;10.00;;;23.40;99.50;;;;;;5008597;28;20422;-49
2022/07/31 08:14:51;;;;;;;10.47;9.80;;;23.50;99.50;;;;;;5000560;28;20873;-55
2022/07/31 08:17:17;;;;;;;11.60;10.90;;;23.50;99.50;;;;;;5000314;28;20791;-53
2022/07/31 08:19:42;;;;;;;10.50;9.80;;;23.70;98.60;;;;;;5005795;28;20441;-51
2022/07/31 08:22:08;;;;;;;9.70;9.00;;;23.90;97.60;;;;;;4999017;28;20187;-52
2022/07/31 08:24:34;;;;;;;11.50;10.77;;;23.90;97.40;;;;;;5006638;28;20195;-52
2022/07/31 08:29:44;;;;;;;10.90;10.00;;;24.10;95.30;;;;;;5015312;28;20687;-52
2022/07/31 08:32:11;;;;;;;10.03;9.43;;;24.20;95.50;;;;;;5008730;28;20473;-54
2022/07/31 08:34:37;;;;;;;10.67;10.07;;;24.40;94.70;;;;;;5017423;28;20194;-55
2022/07/31 08:37:05;;;;;;;9.77;9.10;;;24.40;94.10;;;;;;5008256;28;21068;-55
2022/07/31 08:39:31;;;;;;;11.40;10.70;;;24.40;93.70;;;;;;5025117;28;20492;-53
2022/07/31 08:41:57;;;;;;;10.50;9.80;;;24.30;93.60;;;;;;5011798;28;20526;-52
2022/07/31 08:44:22;;;;;;;10.40;9.50;;;24.40;94.20;;;;;;5017144;28;20520;-51
2022/07/31 08:46:50;;;;;;;9.67;9.07;;;24.60;94.20;;;;;;5009429;28;20195;-53
2022/07/31 08:49:17;;;;;;;10.93;10.03;;;24.70;93.10;;;;;;5009737;28;20258;-48
2022/07/31 08:51:43;;;;;;;11.13;10.23;;;24.90;92.60;;;;;;5008605;28;20474;-52
2022/07/31 08:54:10;;;;;;;10.43;9.77;;;25.10;91.60;;;;;;5006594;28;20514;-50
2022/07/31 08:56:37;;;;;;;10.50;9.80;;;25.40;90.00;;;;;;5005245;28;20525;-55
2022/07/31 08:59:04;;;;;;;9.87;9.27;;;25.70;87.90;;;;;;5004922;28;20503;-55
2022/07/31 09:01:32;;;;;;;10.63;9.83;;;26.10;83.40;;;;;;5004566;28;20437;-54
2022/07/31 09:03:58;;;;;;;10.67;9.87;;;26.40;84.00;;;;;;5014294;28;20515;-56
2022/07/31 09:06:24;;;;;;;9.90;9.10;;;26.60;82.50;;;;;;5013440;28;21349;-54
2022/07/31 09:08:49;;;;;;;9.83;9.20;;;26.90;81.20;;;;;;5011077;28;20426;-51
2022/07/31 09:11:15;;;;;;;10.47;9.53;;;27.20;78.50;;;;;;5009617;28;20214;-53
2022/07/31 09:13:58;;;;;;;9.90;9.30;;;27.50;76.70;;;;;;5008952;28;20235;-51
2022/07/31 09:16:24;;;;;;;10.57;9.57;;;27.50;68.10;;;;;;5010280;28;20197;-51
2022/07/31 09:19:00;;;;;;;9.70;9.00;;;27.40;69.00;;;;;;5009709;28;20940;-54
2022/07/31 09:21:38;;;;;;;10.80;10.17;;;27.50;69.40;;;;;;5010379;28;20430;-54
2022/07/31 09:24:06;;;;;;;9.87;9.07;;;28.00;68.30;;;;;;5009504;28;20484;-50
2022/07/31 09:26:33;;;;;;;9.47;8.77;;;28.30;67.70;;;;;;5015762;28;20437;-52
2022/07/31 09:29:00;;;;;;;9.97;9.37;;;28.40;62.60;;;;;;5018038;28;20559;-54
2022/07/31 09:31:33;;;;;;;9.40;8.70;;;28.20;61.30;;;;;;5008065;28;21013;-53
2022/07/31 09:33:59;;;;;;;9.20;8.70;;;28.00;63.30;;;;;;5006702;28;20806;-54
2022/07/31 09:36:24;;;;;;;9.93;9.30;;;28.00;64.10;;;;;;5022006;28;20445;-52
2022/07/31 09:38:50;;;;;;;9.70;9.10;;;28.00;60.70;;;;;;5013972;28;20191;-51
2022/07/31 09:41:21;;;;;;;9.80;9.20;;;28.00;59.40;;;;;;5009701;28;20254;-50
2022/07/31 09:43:54;;;;;;;10.20;9.53;;;28.00;60.40;;;;;;5009612;28;20191;-52
2022/07/31 09:46:20;;;;;;;10.80;9.80;;;28.00;60.70;;;;;;5006710;28;20453;-52
2022/07/31 09:48:51;;;;;;;10.47;9.77;;;27.80;60.60;;;;;;5001667;28;21368;-53
2022/07/31 09:51:17;;;;;;;9.30;8.80;;;27.60;61.30;;;;;;5007224;28;20207;-53
2022/07/31 09:53:55;;;;;;;10.47;9.67;;;27.60;61.50;;;;;;5010043;28;20438;-54
2022/07/31 09:56:31;;;;;;;10.03;9.33;;;27.60;62.00;;;;;;5009004;28;20185;-50
2022/07/31 09:58:57;;;;;;;10.47;9.83;;;27.60;59.60;;;;;;5024119;28;20473;-52
2022/07/31 10:01:24;;;;;;;11.13;10.33;;;27.60;59.40;;;;;;5013358;28;20450;-53
2022/07/31 10:03:51;;;;;;;11.00;10.20;;;27.60;59.80;;;;;;5014100;28;20471;-51
2022/07/31 10:06:19;;;;;;;10.60;10.00;;;27.70;60.20;;;;;;5008336;28;21148;-50
2022/07/31 10:08:45;;;;;;;10.70;10.10;;;27.70;59.30;;;;;;5008161;28;20438;-53
2022/07/31 10:11:12;;;;;;;10.47;9.87;;;27.80;58.50;;;;;;5006944;28;20469;-51
2022/07/31 10:13:43;;;;;;;12.77;11.87;;;27.70;58.20;;;;;;5021555;28;20437;-54
2022/07/31 10:16:09;;;;;;;10.10;9.50;;;27.60;58.50;;;;;;5017009;28;20448;-54
2022/07/31 10:18:40;;;;;;;10.13;9.53;;;27.60;58.70;;;;;;5009848;28;20433;-54
2022/07/31 10:21:07;;;;;;;10.03;9.43;;;27.60;58.60;;;;;;5013439;28;20502;-48
2022/07/31 10:23:37;;;;;;;10.20;9.60;;;27.70;56.70;;;;;;5024943;28;20442;-55
2022/07/31 10:26:03;;;;;;;9.47;8.87;;;27.50;55.60;;;;;;5010056;28;20465;-51
2022/07/31 10:28:29;;;;;;;9.30;8.80;;;27.60;55.80;;;;;;5009002;28;20483;-52
2022/07/31 10:30:55;;;;;;;10.73;9.00;;;27.70;55.20;;;;;;5024402;28;20207;-53
2022/07/31 10:33:22;;;;;;;10.90;10.20;;;27.90;55.70;;;;;;5016111;28;20245;-55
2022/07/31 10:36:29;;;;;;;10.43;9.73;;;27.90;56.40;;;;;;5011358;28;20438;-54
2022/07/31 10:39:13;;;;;;;10.50;9.50;;;28.20;56.20;;;;;;5003860;28;20882;-53
2022/07/31 10:42:07;;;;;;;10.40;9.80;;;28.60;55.10;;;;;;5004803;28;20772;-53
2022/07/31 10:44:44;;;;;;;10.33;9.73;;;28.70;52.60;;;;;;5006428;28;21456;-49
2022/07/31 10:47:15;;;;;;;11.10;10.30;;;28.30;53.60;;;;;;5007046;28;20438;-53
2022/07/31 10:49:42;;;;;;;10.50;9.90;;;28.20;55.80;;;;;;5011567;28;20935;-50
2022/07/31 10:52:08;;;;;;;10.80;10.10;;;28.20;55.40;;;;;;5006212;28;20458;-53
2022/07/31 10:54:45;;;;;;;10.63;9.83;;;28.10;55.20;;;;;;5011012;28;20529;-52
2022/07/31 10:57:25;;;;;;;12.80;10.70;;;28.00;54.80;;;;;;5020605;28;20259;-50
2022/07/31 10:59:51;;;;;;;10.98;10.27;;;28.20;54.60;;;;;;5013757;28;20446;-54
2022/07/31 11:02:30;;;;;;;10.00;9.30;;;28.30;53.90;;;;;;5001290;28;20226;-55
2022/07/31 11:05:15;;;;;;;10.90;10.23;;;28.30;54.10;;;;;;5004376;28;20473;-57
2022/07/31 11:07:43;;;;;;;11.00;10.30;;;28.30;54.10;;;;;;5003172;28;20501;-54
2022/07/31 11:10:15;;;;;;;10.13;9.33;;;28.20;54.30;;;;;;5004267;28;20438;-53
2022/07/31 11:12:41;;;;;;;11.07;10.37;;;28.30;55.40;;;;;;5008002;28;21315;-52
2022/07/31 11:15:18;;;;;;;10.63;10.00;;;28.40;54.50;;;;;;5009490;28;20473;-55
2022/07/31 11:17:44;;;;;;;11.40;10.70;;;28.40;53.40;;;;;;5008236;28;21017;-56
2022/07/31 11:20:24;;;;;;;11.77;10.97;;;28.40;53.60;;;;;;5018448;28;20466;-55
2022/07/31 11:22:56;;;;;;;10.43;9.83;;;28.30;54.40;;;;;;5003519;28;20190;-51
2022/07/31 11:25:22;;;;;;;10.93;10.33;;;28.50;54.90;;;;;;5006734;28;20427;-55
2022/07/31 11:27:48;;;;;;;10.47;9.87;;;28.70;54.20;;;;;;5018123;28;20449;-54
2022/07/31 11:30:13;;;;;;;11.00;10.33;;;28.70;52.70;;;;;;5014254;28;20807;-53
2022/07/31 11:32:40;;;;;;;9.73;9.13;;;28.60;52.10;;;;;;5011680;28;20229;-51
2022/07/31 11:35:06;;;;;;;10.70;10.10;;;28.70;50.70;;;;;;5016164;28;20662;-50
2022/07/31 11:37:32;;;;;;;11.10;10.40;;;28.90;51.50;;;;;;5008873;28;20450;-53
2022/07/31 11:39:58;;;;;;;10.40;9.80;;;29.20;50.40;;;;;;5007421;28;20433;-55
2022/07/31 11:42:26;;;;;;;10.50;9.90;;;29.40;49.80;;;;;;5002635;28;20189;-53
2022/07/31 11:44:59;;;;;;;10.23;9.63;;;29.70;48.70;;;;;;5008241;28;20769;-56
2022/07/31 11:47:42;;;;;;;10.90;10.07;;;29.80;48.80;;;;;;5005519;28;20449;-54
2022/07/31 11:50:09;;;;;;;10.50;9.80;;;29.90;49.00;;;;;;5024251;28;20777;-53
2022/07/31 11:52:35;;;;;;;10.57;9.97;;;29.90;49.30;;;;;;5015382;28;20445;-54
2022/07/31 11:55:15;;;;;;;11.23;10.53;;;30.10;48.90;;;;;;5015749;28;20809;-56
2022/07/31 11:57:42;;;;;;;10.67;10.07;;;30.20;48.90;;;;;;5016721;28;20524;-56
2022/07/31 12:00:08;;;;;;;10.33;9.63;;;30.10;49.40;;;;;;5007057;28;20476;-55
2022/07/31 12:02:38;;;;;;;11.10;10.40;;;29.80;49.50;;;;;;5005314;28;20520;-54
2022/07/31 12:05:04;;;;;;;9.70;9.20;;;29.60;48.70;;;;;;5006246;28;20972;-55
2022/07/31 12:07:30;;;;;;;10.37;9.67;;;29.10;46.70;;;;;;5008006;28;20431;-52
2022/07/31 12:09:56;;;;;;;10.80;10.20;;;28.90;48.90;;;;;;5013142;28;20931;-57
2022/07/31 12:12:22;;;;;;;10.83;9.93;;;29.00;49.20;;;;;;5002989;28;20435;-55
2022/07/31 12:14:48;;;;;;;9.97;9.47;;;29.10;49.60;;;;;;5006315;28;20224;-57
2022/07/31 12:17:21;;;;;;;9.87;9.20;;;28.80;48.30;;;;;;5004949;28;20439;-56
2022/07/31 12:19:47;;;;;;;10.07;9.30;;;28.70;48.40;;;;;;5007126;28;20194;-53
2022/07/31 12:22:14;;;;;;;9.20;8.70;;;28.60;47.60;;;;;;5004742;28;20450;-52
2022/07/31 12:24:41;;;;;;;8.73;8.17;;;28.50;48.00;;;;;;5007398;28;20933;-56
2022/07/31 12:27:07;;;;;;;8.63;8.13;;;28.60;48.30;;;;;;5004818;28;20452;-53
2022/07/31 12:29:35;;;;;;;10.27;9.57;;;28.60;47.80;;;;;;5003556;28;20795;-55
2022/07/31 12:32:02;;;;;;;9.63;8.90;;;28.70;46.90;;;;;;5005981;28;20219;-52
2022/07/31 12:34:34;;;;;;;9.10;8.50;;;28.70;46.30;;;;;;5005097;28;20442;-56